Time;durP1;ratioP1;P1;durP2;ratioP2;P2;SDS_P1;SDS_P2;PMS_P1;PMS_P2;Temp;Humidity;BMP_temperature;BMP_pressure;BME280_temperature;BME280_humidity;BME280_pressure;Samples;Min_cycle;Max_cycle;Signal;HPM_P1;HPM_P2
2022/08/27 00:00:33;;;;;;;9.43;5.55;;;22.20;99.90;;;;;;5080388;28;20667;-73
2022/08/27 00:03:01;;;;;;;13.55;6.85;;;22.20;99.90;;;;;;5089613;28;20369;-73
2022/08/27 00:05:28;;;;;;;8.88;5.55;;;22.20;99.90;;;;;;5112734;27;20877;-73
2022/08/27 00:07:54;;;;;;;6.82;5.68;;;22.20;99.90;;;;;;5085434;28;20197;-72
2022/08/27 00:10:26;;;;;;;8.47;5.87;;;22.10;99.90;;;;;;5080554;28;20694;-72
2022/08/27 00:12:57;;;;;;;9.48;6.07;;;22.10;99.90;;;;;;5076854;28;20560;-72
2022/08/27 00:15:23;;;;;;;7.28;5.75;;;22.10;99.90;;;;;;5084725;28;20297;-73
2022/08/27 00:17:51;;;;;;;8.65;5.47;;;22.10;99.90;;;;;;5087951;28;20193;-73
2022/08/27 00:20:20;;;;;;;7.22;5.97;;;22.10;99.90;;;;;;5081418;28;20196;-73
2022/08/27 00:22:47;;;;;;;7.40;5.88;;;22.10;99.90;;;;;;5082926;28;20198;-73
2022/08/27 00:25:13;;;;;;;9.00;5.68;;;22.20;99.90;;;;;;5088607;27;20696;-73
2022/08/27 00:27:40;;;;;;;7.95;5.40;;;22.20;99.90;;;;;;5111924;27;20292;-73
2022/08/27 00:30:13;;;;;;;5.82;5.28;;;22.20;99.90;;;;;;5087716;28;20652;-73
2022/08/27 00:32:40;;;;;;;7.40;5.78;;;22.10;99.90;;;;;;5080566;28;20376;-73
2022/08/27 00:35:08;;;;;;;7.55;6.00;;;22.10;99.90;;;;;;5113719;27;20182;-73
2022/08/27 00:37:34;;;;;;;7.32;5.40;;;22.00;99.90;;;;;;5083873;28;20186;-72
2022/08/27 00:40:02;;;;;;;8.45;5.18;;;22.00;99.90;;;;;;5084491;28;20194;-73
2022/08/27 00:42:29;;;;;;;7.65;5.70;;;21.90;99.90;;;;;;5078376;28;20186;-73
2022/08/27 00:44:55;;;;;;;8.52;5.40;;;21.90;99.90;;;;;;5081171;28;20716;-73
2022/08/27 00:47:26;;;;;;;7.33;5.60;;;21.90;99.90;;;;;;5082835;28;20201;-73
2022/08/27 00:50:09;;;;;;;9.23;5.90;;;21.90;99.90;;;;;;5084624;28;20305;-73
2022/08/27 00:52:53;;;;;;;7.22;5.60;;;21.90;99.90;;;;;;5112462;27;20607;-73
2022/08/27 00:55:29;;;;;;;9.25;5.80;;;21.80;99.90;;;;;;5067550;28;20185;-73
2022/08/27 00:58:28;;;;;;;6.00;5.38;;;21.80;99.90;;;;;;5104249;27;20185;-71
2022/08/27 01:00:55;;;;;;;8.70;5.72;;;21.80;99.90;;;;;;5086526;28;20902;-73
2022/08/27 01:03:24;;;;;;;8.20;5.80;;;21.80;99.90;;;;;;5065733;28;20190;-73
2022/08/27 01:05:53;;;;;;;8.57;5.73;;;21.70;99.90;;;;;;5101594;28;21012;-73
2022/08/27 01:08:26;;;;;;;8.93;5.75;;;21.80;99.90;;;;;;5091921;28;20272;-73
2022/08/27 01:10:57;;;;;;;7.25;5.30;;;21.80;99.90;;;;;;5111508;27;20234;-73
2022/08/27 01:13:31;;;;;;;6.73;5.40;;;21.70;99.90;;;;;;5086037;28;20182;-73
2022/08/27 01:15:58;;;;;;;6.07;5.47;;;21.80;99.90;;;;;;5085459;28;20202;-73
2022/08/27 01:18:29;;;;;;;9.20;5.78;;;21.80;99.90;;;;;;5102965;28;20186;-73
2022/08/27 01:21:38;;;;;;;7.50;5.32;;;21.80;99.90;;;;;;5086550;28;20221;-73
2022/08/27 01:24:39;;;;;;;7.23;5.17;;;21.80;99.90;;;;;;5068112;28;20235;-73
2022/08/27 01:27:11;;;;;;;10.20;5.57;;;21.90;99.90;;;;;;5081077;28;20197;-73
2022/08/27 01:29:37;;;;;;;8.18;5.47;;;21.80;99.90;;;;;;5077061;28;20182;-73
2022/08/27 01:32:16;;;;;;;9.07;5.53;;;21.80;99.90;;;;;;5067752;28;20617;-72
2022/08/27 01:34:43;;;;;;;9.57;5.50;;;21.70;99.90;;;;;;5087471;28;20189;-73
2022/08/27 01:37:11;;;;;;;7.33;5.40;;;21.70;99.90;;;;;;5097881;28;20300;-71
2022/08/27 01:39:39;;;;;;;6.00;5.37;;;21.40;99.90;;;;;;5082849;28;20186;-73
2022/08/27 01:42:18;;;;;;;8.68;5.80;;;21.40;99.90;;;;;;5083023;28;20259;-73
2022/08/27 01:44:58;;;;;;;9.90;5.60;;;21.50;99.90;;;;;;5087559;28;20196;-73
2022/08/27 01:47:27;;;;;;;6.65;5.32;;;21.60;99.90;;;;;;5082045;28;20189;-73
2022/08/27 01:49:54;;;;;;;6.73;5.40;;;21.70;99.90;;;;;;5084475;28;20532;-73
2022/08/27 01:52:27;;;;;;;7.83;5.60;;;21.80;99.90;;;;;;5114046;28;20221;-73
2022/08/27 01:54:54;;;;;;;21.27;6.83;;;21.80;99.90;;;;;;5116478;28;20190;-73
2022/08/27 01:57:21;;;;;;;8.63;5.90;;;21.80;99.90;;;;;;5057524;28;20298;-73
2022/08/27 01:59:48;;;;;;;12.67;6.03;;;21.80;99.90;;;;;;5118442;28;20174;-71
2022/08/27 02:02:16;;;;;;;7.37;6.00;;;21.80;99.90;;;;;;5078838;28;20670;-73
2022/08/27 02:04:44;;;;;;;8.18;5.80;;;21.80;99.90;;;;;;5088981;28;20647;-73
2022/08/27 02:07:11;;;;;;;7.07;5.80;;;21.70;99.90;;;;;;5079295;28;20190;-73
2022/08/27 02:09:38;;;;;;;6.67;5.50;;;21.50;99.90;;;;;;5054900;28;20183;-73
2022/08/27 02:12:05;;;;;;;7.07;5.90;;;21.50;99.90;;;;;;5082658;28;20186;-73
2022/08/27 02:14:31;;;;;;;8.30;5.90;;;21.40;99.90;;;;;;5099050;28;20182;-73
2022/08/27 02:16:58;;;;;;;7.50;6.17;;;21.40;99.90;;;;;;5089883;28;20555;-73
2022/08/27 02:19:26;;;;;;;7.50;6.00;;;21.30;99.90;;;;;;5119891;28;20190;-73
2022/08/27 02:21:53;;;;;;;11.17;6.00;;;21.10;99.90;;;;;;5105340;28;20640;-73
2022/08/27 02:24:20;;;;;;;9.43;6.07;;;21.10;99.90;;;;;;5082455;28;20231;-73
2022/08/27 02:26:46;;;;;;;10.17;6.20;;;21.10;99.90;;;;;;5085919;28;20191;-71
2022/08/27 02:29:13;;;;;;;8.33;5.80;;;21.20;99.90;;;;;;5081515;28;20182;-73
2022/08/27 02:31:40;;;;;;;8.73;5.43;;;21.10;99.90;;;;;;5089377;28;20197;-73
2022/08/27 02:34:08;;;;;;;9.77;6.00;;;21.00;99.90;;;;;;5089563;28;20171;-73
2022/08/27 02:36:36;;;;;;;7.17;6.40;;;21.20;99.90;;;;;;5068674;28;20190;-73
2022/08/27 02:39:07;;;;;;;7.07;5.90;;;21.30;99.90;;;;;;5108412;28;20265;-73
2022/08/27 02:41:34;;;;;;;6.43;5.70;;;21.40;99.90;;;;;;5109021;28;20202;-73
2022/08/27 02:44:02;;;;;;;7.33;5.40;;;21.40;99.90;;;;;;5087427;28;20190;-73
2022/08/27 02:46:29;;;;;;;6.63;5.93;;;21.50;99.90;;;;;;5074771;28;20212;-73
2022/08/27 02:48:55;;;;;;;7.63;5.77;;;21.50;99.90;;;;;;5072545;28;20216;-73
2022/08/27 02:51:21;;;;;;;8.13;5.80;;;21.50;99.90;;;;;;5067329;28;20206;-73
2022/08/27 02:53:51;;;;;;;9.30;6.13;;;21.50;99.90;;;;;;5091839;28;20190;-73
2022/08/27 02:56:18;;;;;;;8.03;5.90;;;21.50;99.90;;;;;;5125755;27;20244;-73
2022/08/27 02:58:44;;;;;;;8.03;5.70;;;21.50;99.90;;;;;;5084270;28;20255;-73
2022/08/27 03:01:11;;;;;;;5.87;5.33;;;21.50;99.90;;;;;;5071800;28;20186;-73
2022/08/27 03:03:37;;;;;;;7.38;5.43;;;21.40;99.90;;;;;;5089647;28;20194;-73
2022/08/27 03:06:04;;;;;;;7.40;5.38;;;21.30;99.90;;;;;;5091834;28;20182;-73
2022/08/27 03:08:30;;;;;;;9.38;5.60;;;21.40;99.90;;;;;;5086461;28;20217;-73
2022/08/27 03:10:57;;;;;;;7.60;5.30;;;21.40;99.90;;;;;;5103388;28;20214;-73
2022/08/27 03:13:25;;;;;;;9.70;5.87;;;21.40;99.90;;;;;;5092644;28;20178;-73
2022/08/27 03:15:52;;;;;;;6.40;5.17;;;21.50;99.90;;;;;;5091149;28;20238;-73
2022/08/27 03:18:20;;;;;;;6.43;5.63;;;21.50;99.90;;;;;;5085940;28;20205;-73
2022/08/27 03:20:54;;;;;;;7.80;5.40;;;21.50;99.90;;;;;;5095039;28;20827;-73
2022/08/27 03:23:24;;;;;;;8.17;5.77;;;21.50;99.90;;;;;;5082175;28;20764;-73
2022/08/27 03:25:57;;;;;;;7.63;5.93;;;21.40;99.90;;;;;;5124133;27;20206;-73
2022/08/27 03:28:29;;;;;;;12.57;5.73;;;21.40;99.90;;;;;;5115381;27;20190;-73
2022/08/27 03:31:01;;;;;;;8.32;5.78;;;21.30;99.90;;;;;;5082737;28;20730;-73
2022/08/27 03:33:34;;;;;;;7.73;5.40;;;21.30;99.90;;;;;;5082538;28;20189;-73
2022/08/27 03:36:04;;;;;;;8.23;5.50;;;21.20;99.90;;;;;;5084393;28;20198;-73
2022/08/27 03:38:31;;;;;;;12.03;5.60;;;21.20;99.90;;;;;;5091742;28;20182;-73
2022/08/27 03:40:58;;;;;;;8.50;5.37;;;21.20;99.90;;;;;;5072768;28;20638;-73
2022/08/27 03:43:25;;;;;;;6.40;5.10;;;21.10;99.90;;;;;;5102825;28;20213;-73
2022/08/27 03:45:52;;;;;;;8.53;5.97;;;21.20;99.90;;;;;;5092115;28;20977;-71
2022/08/27 03:48:19;;;;;;;7.43;5.27;;;21.20;99.90;;;;;;5123658;27;20217;-73
2022/08/27 03:50:49;;;;;;;5.60;5.10;;;21.20;99.90;;;;;;5080226;28;20207;-71
2022/08/27 03:53:19;;;;;;;7.13;4.90;;;21.20;99.90;;;;;;5124721;27;20174;-73
2022/08/27 03:55:46;;;;;;;7.67;5.77;;;21.20;99.90;;;;;;5091705;28;20178;-73
2022/08/27 03:58:13;;;;;;;7.17;5.33;;;21.20;99.90;;;;;;5090051;28;20277;-73
2022/08/27 04:00:41;;;;;;;10.80;5.70;;;21.20;99.90;;;;;;5079460;28;20186;-72
2022/08/27 04:03:11;;;;;;;7.07;5.20;;;21.20;99.90;;;;;;5087253;28;20683;-72
2022/08/27 04:05:37;;;;;;;9.83;5.50;;;21.20;99.90;;;;;;5089915;28;20261;-72
2022/08/27 04:08:05;;;;;;;6.77;5.13;;;21.20;99.90;;;;;;5090328;28;20182;-72
2022/08/27 04:10:32;;;;;;;6.72;5.38;;;21.20;99.90;;;;;;5063093;28;20209;-72
2022/08/27 04:13:00;;;;;;;9.00;6.07;;;21.20;99.90;;;;;;5080149;28;20190;-72
2022/08/27 04:15:26;;;;;;;14.30;5.83;;;21.20;99.90;;;;;;5121159;27;20190;-72
2022/08/27 04:17:53;;;;;;;6.43;5.20;;;21.20;99.90;;;;;;5088947;28;20213;-72
2022/08/27 04:20:19;;;;;;;8.77;5.90;;;21.30;99.90;;;;;;5089031;28;20189;-72
2022/08/27 04:22:47;;;;;;;6.43;5.40;;;21.30;99.90;;;;;;5102186;28;20216;-72
2022/08/27 04:25:13;;;;;;;5.70;4.83;;;21.30;99.90;;;;;;5089707;28;20243;-72
2022/08/27 04:27:40;;;;;;;8.67;5.37;;;21.40;99.90;;;;;;5082894;28;20293;-72
2022/08/27 04:30:09;;;;;;;11.37;6.10;;;21.30;99.90;;;;;;5089569;28;20201;-72
2022/08/27 04:32:37;;;;;;;8.50;5.23;;;21.30;99.90;;;;;;5106460;27;20620;-72
2022/08/27 04:35:04;;;;;;;9.13;6.43;;;21.30;99.90;;;;;;5086748;28;20217;-72
2022/08/27 04:37:32;;;;;;;8.00;5.87;;;21.30;99.90;;;;;;5087470;28;20174;-72
2022/08/27 04:39:58;;;;;;;8.00;5.77;;;21.30;99.90;;;;;;5090575;28;20185;-72
2022/08/27 04:42:25;;;;;;;8.23;5.77;;;21.30;99.90;;;;;;5086811;28;20273;-72
2022/08/27 04:44:52;;;;;;;6.83;5.97;;;21.30;99.90;;;;;;5089508;28;20178;-72
2022/08/27 04:47:19;;;;;;;9.43;5.90;;;21.30;99.90;;;;;;5088732;28;20193;-72
2022/08/27 04:49:46;;;;;;;8.77;6.13;;;21.30;99.90;;;;;;5090726;28;20257;-72
2022/08/27 04:52:13;;;;;;;9.43;6.23;;;21.40;99.90;;;;;;5083741;28;20250;-72
2022/08/27 04:54:39;;;;;;;8.45;5.88;;;21.40;99.90;;;;;;5118909;27;20190;-72
2022/08/27 04:57:07;;;;;;;6.80;6.10;;;21.40;99.90;;;;;;5091015;28;20231;-72
2022/08/27 04:59:36;;;;;;;8.98;6.22;;;21.50;99.90;;;;;;5088601;28;20211;-72
2022/08/27 05:02:08;;;;;;;8.00;5.93;;;21.60;99.90;;;;;;5084230;28;20200;-72
2022/08/27 05:04:38;;;;;;;6.73;5.37;;;21.60;99.90;;;;;;5082758;28;20209;-72
2022/08/27 05:07:08;;;;;;;6.90;6.20;;;21.70;99.90;;;;;;5088284;28;20205;-72
2022/08/27 05:09:35;;;;;;;6.15;5.38;;;21.80;99.90;;;;;;5088924;28;20617;-72
2022/08/27 05:12:01;;;;;;;6.77;6.07;;;21.80;99.90;;;;;;5081953;28;20214;-72
2022/08/27 05:14:29;;;;;;;9.27;6.03;;;21.90;99.90;;;;;;5083012;28;20327;-72
2022/08/27 05:16:58;;;;;;;6.80;6.05;;;21.90;99.90;;;;;;5083774;28;20532;-72
2022/08/27 05:19:25;;;;;;;7.60;5.90;;;22.00;99.90;;;;;;5115695;27;20190;-72
2022/08/27 05:21:52;;;;;;;8.32;6.30;;;22.00;99.90;;;;;;5088441;28;20217;-72
2022/08/27 05:24:19;;;;;;;8.45;6.10;;;22.10;99.90;;;;;;5085884;28;20198;-72
2022/08/27 05:26:48;;;;;;;9.30;5.60;;;22.20;99.90;;;;;;5090488;28;20204;-72
2022/08/27 05:29:16;;;;;;;7.38;6.05;;;22.20;99.90;;;;;;5071324;28;20643;-72
2022/08/27 05:31:43;;;;;;;8.07;6.55;;;22.30;99.90;;;;;;5085121;28;20214;-72
2022/08/27 05:34:10;;;;;;;9.10;6.07;;;22.30;99.90;;;;;;5079519;28;20209;-72
2022/08/27 05:36:39;;;;;;;6.68;5.82;;;22.40;99.90;;;;;;5100507;28;20459;-72
2022/08/27 05:39:06;;;;;;;6.57;5.50;;;22.40;99.90;;;;;;5088015;28;20194;-72
2022/08/27 05:41:34;;;;;;;6.77;5.53;;;22.50;99.90;;;;;;5089567;28;20387;-72
2022/08/27 05:44:08;;;;;;;8.80;5.80;;;22.50;99.90;;;;;;5086060;28;20193;-72
2022/08/27 05:46:38;;;;;;;8.85;5.45;;;22.60;99.90;;;;;;5120338;27;20190;-73
2022/08/27 05:49:05;;;;;;;9.07;5.90;;;22.60;99.90;;;;;;5089623;28;20793;-73
2022/08/27 05:51:37;;;;;;;7.57;5.47;;;22.70;99.90;;;;;;5069372;28;20222;-73
2022/08/27 05:54:13;;;;;;;7.72;5.22;;;22.70;99.90;;;;;;5090268;28;20216;-73
2022/08/27 05:56:41;;;;;;;6.47;5.70;;;22.80;99.90;;;;;;5105651;28;20202;-74
2022/08/27 06:01:55;;;;;;;5.68;4.97;;;22.90;99.90;;;;;;5089856;28;20264;-73
2022/08/27 06:04:24;;;;;;;6.97;5.50;;;23.00;99.90;;;;;;5080470;28;20181;-73
2022/08/27 06:06:52;;;;;;;10.27;5.72;;;23.00;99.90;;;;;;5089440;28;20190;-73
2022/08/27 06:09:23;;;;;;;6.38;5.28;;;23.10;99.90;;;;;;5087040;28;20197;-73
2022/08/27 06:11:53;;;;;;;13.07;5.35;;;23.10;99.90;;;;;;5125502;27;20221;-73
2022/08/27 06:14:20;;;;;;;7.82;5.68;;;23.20;99.90;;;;;;5123226;27;20182;-73
2022/08/27 06:16:48;;;;;;;6.78;5.20;;;23.20;99.90;;;;;;5093530;28;20182;-73
2022/08/27 06:19:15;;;;;;;7.57;5.00;;;23.30;99.90;;;;;;5104684;28;20620;-74
2022/08/27 06:21:43;;;;;;;8.27;4.43;;;23.30;99.90;;;;;;5121092;27;20190;-73
2022/08/27 06:24:11;;;;;;;7.55;4.32;;;23.40;99.90;;;;;;5101853;28;20195;-73
2022/08/27 06:26:41;;;;;;;5.55;4.60;;;23.50;99.90;;;;;;5090561;28;20198;-74
2022/08/27 06:29:09;;;;;;;7.95;5.07;;;23.60;99.90;;;;;;5091411;28;20265;-74
2022/08/27 06:31:41;;;;;;;5.95;4.43;;;23.60;99.90;;;;;;5075302;28;20848;-73
2022/08/27 06:34:11;;;;;;;7.45;4.50;;;23.70;99.90;;;;;;5090309;28;20235;-73
2022/08/27 06:36:41;;;;;;;5.93;4.15;;;23.80;99.90;;;;;;5085878;28;20970;-73
2022/08/27 06:39:12;;;;;;;5.95;4.38;;;23.80;99.90;;;;;;5095818;28;20227;-73
2022/08/27 06:41:40;;;;;;;6.20;4.07;;;23.90;99.90;;;;;;5091041;28;20194;-73
2022/08/27 06:44:07;;;;;;;7.82;3.55;;;24.00;99.90;;;;;;5092041;28;20670;-73
2022/08/27 06:46:37;;;;;;;4.00;3.33;;;24.10;99.90;;;;;;5089436;28;20186;-73
2022/08/27 06:49:03;;;;;;;5.55;3.67;;;24.20;99.90;;;;;;5081338;28;20187;-73
2022/08/27 06:51:34;;;;;;;5.00;3.33;;;24.20;99.90;;;;;;5092015;28;20671;-73
2022/08/27 06:54:05;;;;;;;13.82;3.65;;;24.20;99.90;;;;;;5090662;28;20205;-73
2022/08/27 06:56:33;;;;;;;5.60;3.08;;;24.30;99.90;;;;;;5091202;28;20676;-73
2022/08/27 06:59:06;;;;;;;3.92;3.17;;;24.50;99.90;;;;;;5072606;28;20185;-73
2022/08/27 07:01:40;;;;;;;10.93;3.90;;;24.50;99.90;;;;;;5106423;28;20202;-73
2022/08/27 07:04:23;;;;;;;5.30;3.53;;;24.50;99.90;;;;;;5082724;28;20198;-73
2022/08/27 07:06:50;;;;;;;4.93;3.30;;;24.60;99.90;;;;;;5082811;28;20383;-73
2022/08/27 07:09:19;;;;;;;6.35;3.50;;;24.60;99.90;;;;;;5097468;28;20190;-73
2022/08/27 07:11:46;;;;;;;7.15;3.40;;;24.80;99.90;;;;;;5114277;27;20206;-73
2022/08/27 07:14:13;;;;;;;3.53;2.95;;;24.70;99.90;;;;;;5122728;27;20725;-73
2022/08/27 07:16:40;;;;;;;6.50;3.08;;;24.80;99.90;;;;;;5090095;28;20186;-73
2022/08/27 07:19:16;;;;;;;6.50;3.00;;;24.90;99.90;;;;;;5090300;28;20198;-71
2022/08/27 07:21:43;;;;;;;3.75;2.33;;;24.90;99.90;;;;;;5089124;28;20239;-71
2022/08/27 07:24:11;;;;;;;5.70;2.70;;;25.10;99.90;;;;;;5118588;27;20596;-72
2022/08/27 07:26:43;;;;;;;2.75;2.50;;;25.10;99.90;;;;;;5091176;28;20609;-72
2022/08/27 07:29:14;;;;;;;3.38;2.63;;;25.10;99.90;;;;;;5103690;28;20209;-73
2022/08/27 07:31:42;;;;;;;4.75;2.85;;;25.20;99.90;;;;;;5090860;28;20620;-73
2022/08/27 07:34:08;;;;;;;2.47;2.28;;;25.30;99.90;;;;;;5090147;28;20212;-73
2022/08/27 07:36:37;;;;;;;4.15;2.55;;;25.30;99.90;;;;;;5082319;28;20185;-73
2022/08/27 07:39:05;;;;;;;3.30;2.47;;;25.50;99.90;;;;;;5082172;28;20531;-72
2022/08/27 07:44:23;;;;;;;5.68;2.85;;;25.60;99.90;;;;;;5091769;28;20550;-72
2022/08/27 07:44:24;;;;;;;5.38;2.78;;;25.60;99.90;;;;;;5090159;28;20213;-71
2022/08/27 07:46:51;;;;;;;3.13;2.20;;;25.60;99.90;;;;;;5093428;28;20253;-71
2022/08/27 07:49:24;;;;;;;5.00;2.58;;;25.60;99.90;;;;;;5114688;27;20186;-71
2022/08/27 07:51:51;;;;;;;5.35;3.58;;;25.70;99.90;;;;;;5124807;27;20213;-71
2022/08/27 07:54:21;;;;;;;6.63;4.43;;;26.00;99.90;;;;;;5099384;28;20191;-71
2022/08/27 07:56:48;;;;;;;8.15;4.15;;;26.20;99.90;;;;;;5081230;28;20186;-71
2022/08/27 07:59:14;;;;;;;10.00;4.00;;;26.30;99.90;;;;;;5078811;28;20640;-71
2022/08/27 08:01:41;;;;;;;5.47;4.25;;;26.40;99.90;;;;;;5069490;28;20194;-71
2022/08/27 08:04:08;;;;;;;7.65;4.45;;;26.40;99.90;;;;;;5088489;28;20251;-72
2022/08/27 08:06:39;;;;;;;9.57;4.47;;;26.50;99.90;;;;;;5095795;28;20186;-72
2022/08/27 08:09:06;;;;;;;6.70;4.63;;;26.60;99.90;;;;;;5080202;28;20186;-72
2022/08/27 08:11:34;;;;;;;12.18;4.10;;;26.60;99.90;;;;;;5085787;28;20246;-72
2022/08/27 08:14:02;;;;;;;7.55;4.30;;;26.70;99.90;;;;;;5113520;27;20212;-71
2022/08/27 08:16:29;;;;;;;9.43;4.45;;;26.70;99.90;;;;;;5086181;28;20190;-73
2022/08/27 08:18:56;;;;;;;8.05;4.63;;;26.70;99.90;;;;;;5122490;27;20719;-72
2022/08/27 08:21:23;;;;;;;10.30;5.00;;;26.80;99.90;;;;;;5110692;27;20191;-72
2022/08/27 08:23:50;;;;;;;7.45;4.63;;;26.80;99.90;;;;;;5115040;27;20194;-72
2022/08/27 08:26:18;;;;;;;7.60;3.97;;;26.90;99.90;;;;;;5085897;28;20650;-72
2022/08/27 08:28:45;;;;;;;7.10;4.03;;;26.80;99.90;;;;;;5083956;28;20186;-72
2022/08/27 08:31:12;;;;;;;8.70;3.95;;;26.90;99.90;;;;;;5084285;28;20214;-72
2022/08/27 08:33:38;;;;;;;5.90;4.38;;;26.90;99.90;;;;;;5084448;28;20190;-72
2022/08/27 08:36:16;;;;;;;9.55;4.07;;;27.00;99.90;;;;;;5089661;28;20651;-72
2022/08/27 08:38:46;;;;;;;6.78;4.45;;;27.00;99.90;;;;;;5080392;28;20238;-72
2022/08/27 08:41:43;;;;;;;6.60;4.50;;;27.10;99.90;;;;;;5084644;28;20204;-72
2022/08/27 08:44:53;;;;;;;6.43;4.53;;;27.30;99.90;;;;;;5072318;28;20289;-73
2022/08/27 08:47:58;;;;;;;7.18;4.00;;;27.30;99.90;;;;;;5085670;28;20240;-73
2022/08/27 08:50:33;;;;;;;11.93;3.85;;;27.40;99.90;;;;;;5071008;28;20218;-73
2022/08/27 08:53:32;;;;;;;5.50;3.42;;;27.30;99.90;;;;;;5087021;28;20217;-73
2022/08/27 08:56:06;;;;;;;7.55;4.15;;;27.40;99.90;;;;;;5087627;28;20194;-73
2022/08/27 08:58:48;;;;;;;7.20;4.40;;;27.50;99.90;;;;;;5070762;28;20190;-72
2022/08/27 09:01:19;;;;;;;7.50;4.00;;;27.50;99.90;;;;;;5078713;28;20186;-72
2022/08/27 09:04:03;;;;;;;8.13;4.22;;;27.60;99.90;;;;;;5070222;28;20179;-72
2022/08/27 09:06:53;;;;;;;7.93;4.70;;;27.60;99.90;;;;;;5062205;28;20240;-72
2022/08/27 09:09:34;;;;;;;5.45;3.95;;;27.80;99.90;;;;;;5087361;28;20201;-73
2022/08/27 09:12:23;;;;;;;9.52;4.32;;;27.80;99.90;;;;;;5074072;28;20275;-73
2022/08/27 09:15:13;;;;;;;9.27;4.15;;;27.90;99.90;;;;;;5077829;28;20186;-72
2022/08/27 09:17:41;;;;;;;7.45;3.75;;;28.00;99.90;;;;;;5082543;28;20201;-72
2022/08/27 09:20:11;;;;;;;5.70;3.90;;;28.10;99.90;;;;;;5071474;28;20193;-72
2022/08/27 09:23:00;;;;;;;6.68;3.97;;;28.30;99.90;;;;;;5088815;28;20281;-73
2022/08/27 09:25:36;;;;;;;4.95;3.95;;;28.40;99.90;;;;;;5086322;28;20273;-72
2022/08/27 09:31:18;;;;;;;8.80;4.45;;;28.50;99.90;;;;;;5105689;28;20214;-73
2022/08/27 09:33:45;;;;;;;5.85;4.20;;;28.70;99.90;;;;;;5088826;28;20219;-73
2022/08/27 09:36:16;;;;;;;9.05;3.90;;;28.80;99.90;;;;;;5088555;28;20185;-73
2022/08/27 09:39:01;;;;;;;7.95;4.10;;;28.90;99.90;;;;;;5075065;28;20187;-72
2022/08/27 09:41:38;;;;;;;5.45;3.90;;;29.00;99.90;;;;;;5078004;28;20190;-73
2022/08/27 09:44:15;;;;;;;6.50;4.07;;;29.10;99.90;;;;;;5085318;28;20560;-72
2022/08/27 09:47:01;;;;;;;6.47;3.97;;;29.20;99.90;;;;;;5095798;28;20209;-73
2022/08/27 09:49:33;;;;;;;5.18;3.60;;;29.20;99.90;;;;;;5082422;28;20249;-72
2022/08/27 09:52:01;;;;;;;6.28;4.22;;;29.40;99.90;;;;;;5087437;28;20229;-73
2022/08/27 09:54:45;;;;;;;6.80;3.78;;;29.50;99.90;;;;;;5087057;28;20183;-72
2022/08/27 09:57:28;;;;;;;4.47;3.80;;;29.50;99.90;;;;;;5072687;28;20186;-73
2022/08/27 09:59:55;;;;;;;5.78;4.05;;;29.40;99.90;;;;;;5089807;28;20196;-73
2022/08/27 10:02:26;;;;;;;7.22;4.00;;;29.50;99.90;;;;;;5071556;28;20181;-73
2022/08/27 10:05:15;;;;;;;7.18;3.63;;;29.50;99.90;;;;;;5089548;28;20535;-73
2022/08/27 10:08:03;;;;;;;7.45;4.32;;;29.60;99.90;;;;;;5104675;28;20178;-73
2022/08/27 10:10:53;;;;;;;7.63;4.18;;;29.60;99.90;;;;;;5068452;28;20272;-73
2022/08/27 10:13:56;;;;;;;9.60;4.18;;;29.70;99.90;;;;;;5078974;28;20555;-73
2022/08/27 10:16:22;;;;;;;9.02;4.20;;;29.70;99.90;;;;;;5053600;28;20190;-73
2022/08/27 10:19:10;;;;;;;6.20;4.20;;;29.70;99.90;;;;;;5081597;28;20191;-73
2022/08/27 10:22:15;;;;;;;6.07;4.13;;;29.60;99.90;;;;;;5082953;28;20186;-73
2022/08/27 10:25:07;;;;;;;8.05;4.10;;;29.30;99.90;;;;;;5084231;28;20659;-73
2022/08/27 10:28:00;;;;;;;10.23;4.18;;;29.20;99.90;;;;;;5078501;28;20908;-73
2022/08/27 10:31:12;;;;;;;5.35;3.58;;;29.20;99.90;;;;;;5113864;28;20202;-73
2022/08/27 10:34:16;;;;;;;11.55;4.50;;;29.30;99.90;;;;;;5064762;28;20200;-74
2022/08/27 10:37:25;;;;;;;5.43;3.90;;;29.30;99.90;;;;;;5053121;28;20193;-72
2022/08/27 10:40:13;;;;;;;13.35;4.65;;;29.30;99.90;;;;;;5078559;28;20186;-72
2022/08/27 10:43:02;;;;;;;7.22;4.00;;;29.30;99.90;;;;;;5102664;28;20198;-72
2022/08/27 10:45:54;;;;;;;6.63;3.80;;;29.50;99.90;;;;;;5115527;28;20191;-73
2022/08/27 10:48:59;;;;;;;9.38;4.10;;;29.50;99.90;;;;;;5077297;28;20178;-72
2022/08/27 10:51:52;;;;;;;6.45;3.88;;;29.40;99.90;;;;;;5060317;28;20289;-74
2022/08/27 10:54:34;;;;;;;6.38;4.15;;;29.50;99.90;;;;;;5081280;28;20201;-73
2022/08/27 10:57:23;;;;;;;7.25;3.88;;;29.40;99.90;;;;;;5068220;28;20273;-73
2022/08/27 11:00:12;;;;;;;7.03;3.72;;;29.60;99.90;;;;;;5087109;28;20674;-72
2022/08/27 11:03:08;;;;;;;5.80;3.80;;;29.50;99.90;;;;;;5088182;28;20194;-73
2022/08/27 11:05:49;;;;;;;10.02;4.68;;;29.40;99.90;;;;;;5072648;28;20578;-73
2022/08/27 11:08:27;;;;;;;6.00;4.00;;;29.50;99.90;;;;;;5089491;28;20198;-73
2022/08/27 11:11:24;;;;;;;7.15;4.50;;;29.30;99.90;;;;;;5090410;28;20201;-73
2022/08/27 11:14:22;;;;;;;6.13;3.75;;;29.50;99.90;;;;;;5076608;28;20235;-72
2022/08/27 11:16:58;;;;;;;7.03;3.75;;;29.40;99.90;;;;;;5061418;28;20199;-72
2022/08/27 11:19:58;;;;;;;6.18;3.42;;;29.50;99.90;;;;;;5051245;28;20187;-73
2022/08/27 11:22:48;;;;;;;6.20;3.65;;;29.20;99.90;;;;;;5026490;28;20182;-73
2022/08/27 11:25:45;;;;;;;5.40;3.92;;;29.20;99.90;;;;;;5089017;28;20190;-72
2022/08/27 11:28:14;;;;;;;8.43;4.40;;;29.10;99.90;;;;;;5055782;28;20269;-72
2022/08/27 11:31:05;;;;;;;8.18;4.03;;;29.20;99.90;;;;;;5052126;28;20199;-74
2022/08/27 11:34:22;;;;;;;7.43;3.70;;;29.40;99.90;;;;;;5070347;28;20707;-73
2022/08/27 11:37:15;;;;;;;15.45;4.60;;;29.30;99.90;;;;;;5041917;28;20192;-74
2022/08/27 11:40:05;;;;;;;7.68;4.03;;;29.40;99.90;;;;;;5031839;28;20587;-74
2022/08/27 11:42:43;;;;;;;6.35;3.63;;;29.50;99.90;;;;;;5049797;28;20226;-75
2022/08/27 11:45:29;;;;;;;5.85;4.00;;;29.40;99.90;;;;;;5068637;28;20620;-74
2022/08/27 11:48:14;;;;;;;6.07;3.60;;;29.30;99.90;;;;;;5078984;28;20189;-74
2022/08/27 11:51:00;;;;;;;5.75;3.70;;;29.70;99.90;;;;;;5055442;28;20352;-74
2022/08/27 11:53:55;;;;;;;7.78;3.97;;;29.40;99.90;;;;;;5080486;28;20194;-74
2022/08/27 11:56:40;;;;;;;11.48;3.63;;;29.20;99.90;;;;;;5087638;28;20641;-74
2022/08/27 11:59:28;;;;;;;7.45;3.92;;;29.20;99.90;;;;;;5123442;27;20178;-73
2022/08/27 12:02:11;;;;;;;6.10;4.22;;;29.30;99.90;;;;;;5090177;28;20222;-74
2022/08/27 12:04:41;;;;;;;8.23;4.10;;;29.20;99.90;;;;;;5102450;27;20749;-74
2022/08/27 12:07:32;;;;;;;6.95;3.83;;;29.20;99.90;;;;;;5089897;28;20189;-75
2022/08/27 12:10:02;;;;;;;9.18;4.47;;;29.30;99.90;;;;;;5105794;28;20339;-75
2022/08/27 12:13:01;;;;;;;4.50;3.80;;;29.00;99.90;;;;;;5090191;28;20640;-74
2022/08/27 12:16:04;;;;;;;4.93;3.63;;;29.20;99.90;;;;;;5098604;28;20202;-74
2022/08/27 12:19:05;;;;;;;6.28;3.85;;;29.10;99.90;;;;;;5106830;27;20201;-74
2022/08/27 12:21:47;;;;;;;6.20;3.70;;;29.20;99.90;;;;;;5089923;28;20259;-75
2022/08/27 12:24:43;;;;;;;6.35;3.97;;;29.30;99.90;;;;;;5089458;28;20170;-74
2022/08/27 12:27:33;;;;;;;7.50;3.67;;;29.20;99.90;;;;;;5089924;28;20217;-75
2022/08/27 12:30:18;;;;;;;6.90;3.63;;;29.10;99.90;;;;;;5124427;27;20247;-75
2022/08/27 12:32:53;;;;;;;5.70;4.32;;;29.20;99.90;;;;;;5087156;28;20212;-74
2022/08/27 12:35:42;;;;;;;5.85;3.42;;;29.20;99.90;;;;;;5089996;28;20204;-74
2022/08/27 12:38:34;;;;;;;8.93;4.22;;;29.10;99.90;;;;;;5066117;28;20187;-74
2022/08/27 12:41:07;;;;;;;10.32;3.97;;;29.00;99.90;;;;;;5061051;28;20256;-74
2022/08/27 12:43:40;;;;;;;5.45;3.70;;;29.10;99.90;;;;;;5084288;28;20520;-74
2022/08/27 12:46:17;;;;;;;6.43;3.97;;;29.00;99.90;;;;;;5081215;28;20186;-77
2022/08/27 12:48:58;;;;;;;7.18;3.83;;;28.90;99.90;;;;;;5081690;28;20253;-75
2022/08/27 12:51:37;;;;;;;6.22;3.95;;;28.80;99.90;;;;;;5077828;28;20219;-76
2022/08/27 12:54:41;;;;;;;5.47;3.70;;;28.90;99.90;;;;;;5121500;27;20209;-75
2022/08/27 12:57:32;;;;;;;8.15;4.30;;;28.80;99.90;;;;;;5087549;28;20178;-75
2022/08/27 13:00:14;;;;;;;5.03;3.80;;;28.60;99.90;;;;;;5087060;28;20174;-75
2022/08/27 13:03:27;;;;;;;6.18;3.80;;;28.50;99.90;;;;;;5086679;28;20222;-74
2022/08/27 13:05:56;;;;;;;8.75;3.90;;;28.40;99.90;;;;;;5081911;28;20194;-76
2022/08/27 13:08:35;;;;;;;7.68;4.22;;;28.60;99.90;;;;;;5094761;28;20190;-76
2022/08/27 13:11:26;;;;;;;8.18;3.95;;;28.70;99.90;;;;;;5114093;27;20257;-76
2022/08/27 13:14:15;;;;;;;6.60;4.32;;;28.70;99.90;;;;;;5085584;28;20268;-74
2022/08/27 13:17:04;;;;;;;5.97;3.80;;;28.70;99.90;;;;;;5060113;28;20178;-75
2022/08/27 13:19:49;;;;;;;6.15;3.72;;;28.70;99.90;;;;;;5087426;28;20265;-74
2022/08/27 13:22:23;;;;;;;7.93;4.20;;;28.50;99.90;;;;;;5066912;28;20194;-75
2022/08/27 13:24:54;;;;;;;7.50;4.15;;;28.60;99.90;;;;;;5084149;28;20670;-75
2022/08/27 13:27:29;;;;;;;7.90;4.40;;;28.70;99.90;;;;;;5111685;27;20191;-75
2022/08/27 13:30:13;;;;;;;7.63;3.78;;;28.60;99.90;;;;;;5062272;28;20247;-74